Time;durP1;ratioP1;P1;durP2;ratioP2;P2;SDS_P1;SDS_P2;PMS_P1;PMS_P2;Temp;Humidity;BMP_temperature;BMP_pressure;BME280_temperature;BME280_humidity;BME280_pressure;Samples;Min_cycle;Max_cycle;Signal;HPM_P1;HPM_P2
2022/01/10 00:01:07;;;;;;;15.10;6.33;;;3.80;99.90;;;;;;4977066;28;20176;-92
2022/01/10 00:03:33;;;;;;;16.53;5.90;;;3.80;99.90;;;;;;4976760;28;20173;-93
2022/01/10 00:05:58;;;;;;;21.10;7.23;;;3.80;99.90;;;;;;4976906;28;20234;-92
2022/01/10 00:08:24;;;;;;;15.03;6.10;;;3.70;99.90;;;;;;4976503;28;20186;-93
2022/01/10 00:10:51;;;;;;;12.60;6.43;;;3.70;99.90;;;;;;4976830;28;20495;-92
2022/01/10 00:13:17;;;;;;;18.30;6.70;;;3.70;99.90;;;;;;4976687;28;20264;-92
2022/01/10 00:15:44;;;;;;;12.67;5.63;;;3.70;99.90;;;;;;4976848;28;20260;-93
2022/01/10 00:18:11;;;;;;;13.33;5.83;;;3.60;99.90;;;;;;4976442;28;20185;-92
2022/01/10 00:20:37;;;;;;;15.73;6.10;;;3.60;99.90;;;;;;4976784;28;20353;-92
2022/01/10 00:23:03;;;;;;;18.13;6.90;;;3.60;99.90;;;;;;4976856;28;20184;-93
2022/01/10 00:25:30;;;;;;;14.33;6.33;;;3.60;99.90;;;;;;4972568;28;20185;-92
2022/01/10 00:27:56;;;;;;;13.27;6.57;;;3.60;99.90;;;;;;4957000;28;20264;-92
2022/01/10 00:30:23;;;;;;;17.70;6.40;;;3.70;99.90;;;;;;4957240;28;20184;-93
2022/01/10 00:32:50;;;;;;;16.90;6.90;;;3.70;99.90;;;;;;4958059;28;20182;-92
2022/01/10 00:35:16;;;;;;;17.10;7.13;;;3.70;99.90;;;;;;4957107;28;20182;-92
2022/01/10 00:37:43;;;;;;;19.27;6.27;;;3.70;99.90;;;;;;4956631;28;20192;-92
2022/01/10 00:40:12;;;;;;;15.03;6.87;;;3.70;99.90;;;;;;4957200;28;20536;-92
2022/01/10 00:42:38;;;;;;;17.93;7.07;;;3.70;99.90;;;;;;4957256;28;20181;-92
2022/01/10 00:45:13;;;;;;;19.27;8.20;;;3.70;99.90;;;;;;4956918;28;20205;-92
2022/01/10 00:47:40;;;;;;;20.07;8.00;;;3.70;99.90;;;;;;4956895;28;20181;-92
2022/01/10 00:50:06;;;;;;;17.77;7.47;;;3.70;99.90;;;;;;4957038;28;20181;-92
2022/01/10 00:52:32;;;;;;;22.00;8.63;;;3.70;99.90;;;;;;4956647;28;20185;-93
2022/01/10 00:54:58;;;;;;;21.87;8.70;;;3.70;99.90;;;;;;4967278;28;20196;-92
2022/01/10 00:57:23;;;;;;;21.77;8.33;;;3.70;99.90;;;;;;4975917;28;20307;-92
2022/01/10 00:59:49;;;;;;;20.63;8.80;;;3.70;99.90;;;;;;4976225;28;20259;-92
2022/01/10 01:02:15;;;;;;;21.27;9.07;;;3.70;99.90;;;;;;4975978;28;20177;-93
2022/01/10 01:04:40;;;;;;;16.27;7.83;;;3.60;99.90;;;;;;4976261;28;20272;-92
2022/01/10 01:07:06;;;;;;;17.90;8.47;;;3.80;99.90;;;;;;4968460;28;20564;-92
2022/01/10 01:09:33;;;;;;;27.80;9.30;;;3.70;99.90;;;;;;4956455;28;20181;-92
2022/01/10 01:15:07;;;;;;;23.57;8.80;;;3.70;99.90;;;;;;4956436;28;20181;-93
2022/01/10 01:17:36;;;;;;;17.07;8.53;;;3.80;99.90;;;;;;4955994;28;20220;-92
2022/01/10 01:25:13;;;;;;;23.60;9.70;;;3.80;99.90;;;;;;4957706;29;20189;-92
2022/01/10 01:27:41;;;;;;;17.77;8.47;;;3.80;99.90;;;;;;4955388;28;20185;-92
2022/01/10 01:30:10;;;;;;;24.87;10.10;;;3.90;99.90;;;;;;4956029;28;20181;-92
2022/01/10 01:32:36;;;;;;;23.27;9.83;;;3.80;99.90;;;;;;4956086;29;20180;-92
2022/01/10 01:35:06;;;;;;;19.43;9.77;;;3.80;99.90;;;;;;4956283;28;20177;-92
2022/01/10 01:37:32;;;;;;;24.17;9.83;;;3.80;99.90;;;;;;4965109;28;20240;-92
2022/01/10 01:39:59;;;;;;;19.50;9.40;;;3.80;99.90;;;;;;4975310;28;20223;-92
2022/01/10 01:42:40;;;;;;;20.83;9.60;;;3.70;99.90;;;;;;4975122;28;20203;-92
2022/01/10 01:45:08;;;;;;;22.43;10.10;;;3.80;99.90;;;;;;4975266;28;20592;-92
2022/01/10 01:47:34;;;;;;;24.00;10.10;;;3.80;99.90;;;;;;4974926;28;20238;-91
2022/01/10 01:50:00;;;;;;;22.67;9.63;;;3.80;99.90;;;;;;4975270;28;20203;-92
2022/01/10 01:52:27;;;;;;;27.97;10.50;;;3.80;99.90;;;;;;4975376;28;20180;-92
2022/01/10 01:54:53;;;;;;;23.57;10.10;;;3.80;99.90;;;;;;4975253;28;20184;-93
2022/01/10 01:57:19;;;;;;;25.50;10.07;;;3.80;99.90;;;;;;4974950;28;20216;-92
2022/01/10 01:59:45;;;;;;;20.37;9.13;;;3.70;99.90;;;;;;4975108;28;20263;-92
2022/01/10 02:02:11;;;;;;;28.27;11.03;;;3.80;99.90;;;;;;4974332;28;20275;-92
2022/01/10 02:04:37;;;;;;;21.30;9.20;;;3.80;99.90;;;;;;4975141;28;20176;-91
2022/01/10 02:07:03;;;;;;;21.37;9.50;;;3.80;99.90;;;;;;4974794;28;20714;-92
2022/01/10 02:09:30;;;;;;;19.40;8.57;;;3.80;99.90;;;;;;4975005;28;20243;-92
2022/01/10 02:11:57;;;;;;;21.73;9.57;;;3.80;99.90;;;;;;4974960;28;20181;-92
2022/01/10 02:14:22;;;;;;;17.63;9.10;;;3.80;99.90;;;;;;4975397;28;20179;-93
2022/01/10 02:16:56;;;;;;;22.93;9.30;;;3.70;99.90;;;;;;4975033;28;20303;-93
2022/01/10 02:19:23;;;;;;;19.93;8.97;;;3.70;99.90;;;;;;4978302;28;20170;-92
2022/01/10 02:21:49;;;;;;;20.20;8.47;;;3.70;99.90;;;;;;4978994;28;20194;-92
2022/01/10 02:24:14;;;;;;;23.10;9.00;;;3.70;99.90;;;;;;4979000;28;20172;-91
2022/01/10 02:26:40;;;;;;;16.60;8.77;;;3.70;99.90;;;;;;4978390;28;20188;-92
2022/01/10 02:29:07;;;;;;;23.03;8.87;;;3.70;99.90;;;;;;4978967;28;20185;-92
2022/01/10 02:31:39;;;;;;;23.90;8.90;;;3.60;99.90;;;;;;4978704;28;20215;-93
2022/01/10 02:34:04;;;;;;;19.17;8.67;;;3.60;99.90;;;;;;4958955;29;20177;-93
2022/01/10 02:36:30;;;;;;;20.17;9.10;;;3.60;99.90;;;;;;4959088;29;20221;-93
2022/01/10 02:39:03;;;;;;;19.10;8.90;;;3.60;99.90;;;;;;4958854;29;20232;-92
2022/01/10 02:41:37;;;;;;;19.23;8.83;;;3.60;99.90;;;;;;4959226;29;20182;-92
2022/01/10 02:44:07;;;;;;;22.93;8.77;;;3.60;99.90;;;;;;4959243;29;20180;-92
2022/01/10 02:46:35;;;;;;;20.13;9.43;;;3.50;99.90;;;;;;4958556;28;20192;-92
2022/01/10 02:49:07;;;;;;;17.50;8.23;;;3.50;99.90;;;;;;4975011;28;20181;-92
2022/01/10 02:51:33;;;;;;;21.03;8.63;;;3.60;99.90;;;;;;4958982;28;20224;-92
2022/01/10 02:53:59;;;;;;;16.97;7.70;;;3.60;99.90;;;;;;4960052;28;20177;-92
2022/01/10 02:56:25;;;;;;;21.10;7.80;;;3.60;99.90;;;;;;4958732;28;20208;-92
2022/01/10 02:58:50;;;;;;;18.77;7.60;;;3.70;99.90;;;;;;4959049;29;20181;-92
2022/01/10 03:01:16;;;;;;;19.10;7.70;;;3.70;99.90;;;;;;4959011;29;20224;-92
2022/01/10 03:03:42;;;;;;;22.20;8.87;;;3.70;99.90;;;;;;4975574;28;20193;-92
2022/01/10 03:06:08;;;;;;;17.63;7.17;;;3.70;99.90;;;;;;4977801;28;20176;-92
2022/01/10 03:08:34;;;;;;;15.97;7.50;;;3.70;99.90;;;;;;4977959;28;20190;-92
2022/01/10 03:11:00;;;;;;;15.90;7.53;;;3.70;99.90;;;;;;4977997;28;20685;-92
2022/01/10 03:13:26;;;;;;;19.93;7.80;;;3.70;99.90;;;;;;4978140;28;20168;-92
2022/01/10 03:15:52;;;;;;;17.00;6.97;;;3.70;99.90;;;;;;4977615;28;20640;-92
2022/01/10 03:18:18;;;;;;;21.67;8.37;;;3.70;99.90;;;;;;4977641;28;20192;-92
2022/01/10 03:20:44;;;;;;;20.27;7.50;;;3.70;99.90;;;;;;4977292;28;20389;-92
2022/01/10 03:23:09;;;;;;;20.50;7.90;;;3.70;99.90;;;;;;4977524;28;20180;-92
2022/01/10 03:25:36;;;;;;;15.97;7.27;;;3.70;99.90;;;;;;4977142;28;20176;-93
2022/01/10 03:28:02;;;;;;;16.27;7.53;;;3.70;99.90;;;;;;4977052;28;20259;-92
2022/01/10 03:30:28;;;;;;;16.70;7.90;;;3.70;99.90;;;;;;4976829;28;20232;-93
2022/01/10 03:32:56;;;;;;;17.10;7.63;;;3.60;99.90;;;;;;4966728;28;20192;-92
2022/01/10 03:35:22;;;;;;;23.07;8.37;;;3.60;99.90;;;;;;4958133;28;20500;-92
2022/01/10 03:37:48;;;;;;;19.67;8.43;;;3.60;99.90;;;;;;4957950;28;20200;-92
2022/01/10 03:40:14;;;;;;;19.80;8.07;;;3.60;99.90;;;;;;4958141;28;20178;-90
2022/01/10 03:42:40;;;;;;;19.07;7.80;;;3.60;99.90;;;;;;4959180;28;20240;-92
2022/01/10 03:45:06;;;;;;;17.03;7.83;;;3.70;99.90;;;;;;4958409;28;20597;-92
2022/01/10 03:47:32;;;;;;;17.67;8.33;;;3.70;99.90;;;;;;4957819;28;20186;-92
2022/01/10 03:49:58;;;;;;;19.33;8.33;;;3.70;99.90;;;;;;4958263;28;20693;-92
2022/01/10 03:52:25;;;;;;;19.60;8.00;;;3.60;99.90;;;;;;4958127;28;20341;-92
2022/01/10 03:54:51;;;;;;;18.97;7.33;;;3.60;99.90;;;;;;4958058;28;20181;-93
2022/01/10 03:57:17;;;;;;;20.10;8.00;;;3.60;99.90;;;;;;4957838;28;20221;-91
2022/01/10 03:59:42;;;;;;;20.73;8.30;;;3.60;99.90;;;;;;4958004;28;20177;-92
2022/01/10 04:02:08;;;;;;;19.50;7.87;;;3.60;99.90;;;;;;4962046;28;20196;-92
2022/01/10 04:04:36;;;;;;;19.20;6.77;;;3.60;99.90;;;;;;4976672;28;20208;-92
2022/01/10 04:07:03;;;;;;;16.93;8.13;;;3.60;99.90;;;;;;4976682;28;20181;-92
2022/01/10 04:09:29;;;;;;;23.00;7.70;;;3.60;99.90;;;;;;4977162;28;20588;-92
2022/01/10 04:11:55;;;;;;;17.77;7.33;;;3.70;99.90;;;;;;4976871;28;20212;-92
2022/01/10 04:14:21;;;;;;;15.97;7.47;;;3.60;99.90;;;;;;4976885;28;20256;-92
2022/01/10 04:16:46;;;;;;;13.43;7.43;;;3.60;99.90;;;;;;4976330;28;20267;-92
2022/01/10 04:19:12;;;;;;;18.73;7.27;;;3.60;99.90;;;;;;4976601;28;20220;-92
2022/01/10 04:21:38;;;;;;;20.70;7.30;;;3.60;99.90;;;;;;4976750;28;20180;-93
2022/01/10 04:24:06;;;;;;;21.63;8.27;;;3.60;99.90;;;;;;4976716;28;20515;-92
2022/01/10 04:26:32;;;;;;;19.50;7.83;;;3.50;99.90;;;;;;4976355;28;20272;-92
2022/01/10 04:28:58;;;;;;;22.40;8.07;;;3.60;99.90;;;;;;4977716;28;20178;-92
2022/01/10 04:31:24;;;;;;;17.30;7.43;;;3.60;99.90;;;;;;4976308;28;20176;-92
2022/01/10 04:33:49;;;;;;;18.70;7.57;;;3.60;99.90;;;;;;4976206;28;20192;-91
2022/01/10 04:36:15;;;;;;;22.20;8.23;;;3.60;99.90;;;;;;4976465;28;20212;-92
2022/01/10 04:38:42;;;;;;;16.07;8.33;;;3.60;99.90;;;;;;4976067;28;20303;-92
2022/01/10 04:41:09;;;;;;;17.57;8.10;;;3.60;99.90;;;;;;4976362;28;20519;-92
2022/01/10 04:43:37;;;;;;;16.80;8.23;;;3.60;99.90;;;;;;4975526;28;20176;-92
2022/01/10 04:46:02;;;;;;;20.57;8.47;;;3.60;99.90;;;;;;4976175;28;20184;-92
2022/01/10 04:48:28;;;;;;;20.50;7.97;;;3.60;99.90;;;;;;4975875;28;20181;-92
2022/01/10 04:53:23;;;;;;;23.33;7.93;;;3.60;99.90;;;;;;4977570;28;20230;-92
2022/01/10 04:55:49;;;;;;;23.90;8.30;;;3.60;99.90;;;;;;4976115;28;20236;-93
2022/01/10 04:58:15;;;;;;;19.70;7.63;;;3.60;99.90;;;;;;4975899;28;20235;-92
2022/01/10 05:00:41;;;;;;;23.93;7.90;;;3.60;99.90;;;;;;4975913;28;20188;-92
2022/01/10 05:03:06;;;;;;;21.37;7.53;;;3.60;99.90;;;;;;4975757;28;20247;-92
2022/01/10 05:05:36;;;;;;;18.40;8.10;;;3.60;99.90;;;;;;4975800;28;20321;-92
2022/01/10 05:08:01;;;;;;;22.37;8.23;;;3.60;99.90;;;;;;4975845;28;20184;-92
2022/01/10 05:10:27;;;;;;;20.07;8.23;;;3.70;99.90;;;;;;4976029;28;20181;-92
2022/01/10 05:12:53;;;;;;;17.20;8.27;;;3.80;99.90;;;;;;4975791;28;20172;-92
2022/01/10 05:15:19;;;;;;;24.73;8.77;;;3.80;99.90;;;;;;4975923;28;20173;-92
2022/01/10 05:17:45;;;;;;;22.77;8.57;;;3.70;99.90;;;;;;4975429;28;20223;-92
2022/01/10 05:20:11;;;;;;;26.07;8.80;;;3.70;99.90;;;;;;4975854;28;20258;-92
2022/01/10 05:22:37;;;;;;;25.07;8.63;;;3.70;99.90;;;;;;4976077;28;20185;-92
2022/01/10 05:25:04;;;;;;;29.83;8.83;;;3.60;99.90;;;;;;4975797;28;20626;-92
2022/01/10 05:27:29;;;;;;;26.33;8.13;;;3.60;99.90;;;;;;4975640;28;20208;-92
2022/01/10 05:29:55;;;;;;;21.87;7.77;;;3.60;99.90;;;;;;4975474;28;20239;-92
2022/01/10 05:32:21;;;;;;;17.60;7.83;;;3.60;99.90;;;;;;4975377;28;20191;-92
2022/01/10 05:34:46;;;;;;;18.10;8.37;;;3.60;99.90;;;;;;4975273;28;20169;-92
2022/01/10 05:37:12;;;;;;;23.70;8.97;;;3.60;99.90;;;;;;4976136;28;20255;-91
2022/01/10 05:39:38;;;;;;;22.73;8.60;;;3.50;99.90;;;;;;4975230;28;20283;-92
2022/01/10 05:42:04;;;;;;;21.53;8.40;;;3.50;99.90;;;;;;4975353;28;20180;-92
2022/01/10 05:44:30;;;;;;;21.03;8.23;;;3.50;99.90;;;;;;4975013;28;20185;-92
2022/01/10 05:46:58;;;;;;;22.00;8.10;;;3.50;99.90;;;;;;4975189;28;20181;-93
2022/01/10 05:49:29;;;;;;;20.97;8.93;;;3.50;99.90;;;;;;4975058;28;20227;-92
2022/01/10 05:51:55;;;;;;;17.83;7.47;;;3.50;99.90;;;;;;4975315;28;20267;-91
2022/01/10 05:54:20;;;;;;;27.00;8.93;;;3.50;99.90;;;;;;4976003;28;20208;-92
2022/01/10 05:56:46;;;;;;;23.93;8.97;;;3.40;99.90;;;;;;4975862;28;20220;-92
2022/01/10 05:59:12;;;;;;;19.40;8.50;;;3.50;99.90;;;;;;4975059;28;20264;-92
2022/01/10 06:01:38;;;;;;;22.23;8.03;;;3.50;99.90;;;;;;4975193;28;20207;-92
2022/01/10 06:04:04;;;;;;;21.43;8.07;;;3.50;99.90;;;;;;4975052;28;20180;-92
2022/01/10 06:06:29;;;;;;;24.33;8.33;;;3.60;99.90;;;;;;4974871;28;20607;-92
2022/01/10 06:08:55;;;;;;;21.43;9.30;;;3.60;99.90;;;;;;4975160;28;20192;-93
2022/01/10 06:11:21;;;;;;;17.37;7.60;;;3.60;99.90;;;;;;4975034;28;20188;-92
2022/01/10 06:13:47;;;;;;;21.27;9.03;;;3.50;99.90;;;;;;4974909;28;20181;-92
2022/01/10 06:16:13;;;;;;;24.30;8.27;;;3.50;99.90;;;;;;4975078;28;20612;-92
2022/01/10 06:18:39;;;;;;;22.60;9.03;;;3.50;99.90;;;;;;4974495;28;20191;-92
2022/01/10 06:21:05;;;;;;;19.70;9.13;;;3.50;99.90;;;;;;4974868;28;20181;-92
2022/01/10 06:23:30;;;;;;;20.73;8.23;;;3.50;99.90;;;;;;4974937;28;20239;-92
2022/01/10 06:25:56;;;;;;;21.60;9.00;;;3.50;99.90;;;;;;4974886;28;20550;-92
2022/01/10 06:28:22;;;;;;;27.13;8.87;;;3.50;99.90;;;;;;4974598;28;20507;-92
2022/01/10 06:30:47;;;;;;;26.47;9.00;;;3.40;99.90;;;;;;4974620;28;20189;-92
2022/01/10 06:33:13;;;;;;;20.77;8.07;;;3.50;99.90;;;;;;4974517;28;20262;-92
2022/01/10 06:35:39;;;;;;;18.47;8.73;;;3.50;99.90;;;;;;4974874;28;20177;-92
2022/01/10 06:38:05;;;;;;;22.10;8.23;;;3.50;99.90;;;;;;4976118;28;20228;-92
2022/01/10 06:40:30;;;;;;;23.63;7.93;;;3.50;99.90;;;;;;4975111;28;20177;-93
2022/01/10 06:42:57;;;;;;;19.47;8.20;;;3.60;99.90;;;;;;4975848;28;20204;-92
2022/01/10 06:45:22;;;;;;;21.67;8.30;;;3.50;99.90;;;;;;4973036;28;20177;-91
2022/01/10 06:47:51;;;;;;;22.77;8.67;;;3.50;99.90;;;;;;4971255;28;20195;-91
2022/01/10 06:50:17;;;;;;;20.33;8.77;;;3.50;99.90;;;;;;4974297;28;20177;-90
2022/01/10 06:52:43;;;;;;;21.83;8.40;;;3.50;99.90;;;;;;4974475;28;20177;-91
2022/01/10 06:55:09;;;;;;;22.73;9.23;;;3.40;99.90;;;;;;4974442;28;20496;-90
2022/01/10 06:57:35;;;;;;;20.27;9.53;;;3.50;99.90;;;;;;4974188;28;20263;-93
2022/01/10 07:00:03;;;;;;;25.87;9.93;;;3.50;99.90;;;;;;4974347;28;20517;-93
2022/01/10 07:02:29;;;;;;;24.90;8.80;;;3.50;99.90;;;;;;4973931;28;20199;-91
2022/01/10 07:04:55;;;;;;;20.90;9.27;;;3.40;99.90;;;;;;4975366;28;20169;-92
2022/01/10 07:07:21;;;;;;;20.47;9.20;;;3.40;99.90;;;;;;4977734;28;20211;-93
2022/01/10 07:09:47;;;;;;;21.87;8.70;;;3.40;99.90;;;;;;4977898;28;20204;-93
2022/01/10 07:12:13;;;;;;;25.53;9.30;;;3.40;99.90;;;;;;4978021;28;20188;-93
2022/01/10 07:14:39;;;;;;;21.93;9.03;;;3.40;99.90;;;;;;4977579;28;20509;-92
2022/01/10 07:17:05;;;;;;;21.37;9.00;;;3.40;99.90;;;;;;4977802;28;20553;-93
2022/01/10 07:19:31;;;;;;;20.37;9.13;;;3.40;99.90;;;;;;4977785;28;20243;-93
2022/01/10 07:21:57;;;;;;;24.70;9.40;;;3.40;99.90;;;;;;4977962;28;20619;-95
2022/01/10 07:24:23;;;;;;;22.93;9.57;;;3.50;99.90;;;;;;4977710;28;20582;-93
2022/01/10 07:26:49;;;;;;;27.53;10.20;;;3.50;99.90;;;;;;4977654;28;20518;-93
2022/01/10 07:29:14;;;;;;;19.90;9.17;;;3.50;99.90;;;;;;4977625;28;20168;-93
2022/01/10 07:31:41;;;;;;;27.50;10.07;;;3.40;99.90;;;;;;4977746;28;20643;-94
2022/01/10 07:34:10;;;;;;;27.40;9.60;;;3.50;99.90;;;;;;4977261;28;20177;-93
2022/01/10 07:36:36;;;;;;;27.50;9.83;;;3.60;99.90;;;;;;4977915;28;20207;-94
2022/01/10 07:39:02;;;;;;;28.17;10.27;;;3.60;99.90;;;;;;4982788;28;20223;-94
2022/01/10 07:41:28;;;;;;;25.97;10.37;;;3.70;99.90;;;;;;4989841;28;20187;-91
2022/01/10 07:43:56;;;;;;;25.67;10.90;;;3.60;99.90;;;;;;4977549;28;20184;-92
2022/01/10 07:46:22;;;;;;;26.27;10.57;;;3.70;99.90;;;;;;4977759;28;20272;-92
2022/01/10 07:48:48;;;;;;;30.70;11.47;;;3.70;99.90;;;;;;4977231;28;20191;-92
2022/01/10 07:51:14;;;;;;;29.17;10.00;;;3.70;99.90;;;;;;4977879;28;20181;-92
2022/01/10 07:53:42;;;;;;;25.27;10.30;;;3.70;99.90;;;;;;4977463;28;20184;-91
2022/01/10 07:56:09;;;;;;;29.07;10.93;;;3.60;99.90;;;;;;4976761;28;20282;-92
2022/01/10 07:58:35;;;;;;;26.73;10.37;;;3.70;99.90;;;;;;4978141;28;20192;-92
2022/01/10 08:01:01;;;;;;;30.53;11.57;;;3.70;99.90;;;;;;4979063;28;20177;-92
2022/01/10 08:03:27;;;;;;;23.53;11.10;;;3.70;99.90;;;;;;4977222;28;20550;-91
2022/01/10 08:05:53;;;;;;;32.73;10.70;;;3.70;99.90;;;;;;4977383;28;20181;-92
2022/01/10 08:08:19;;;;;;;26.30;10.20;;;3.70;99.90;;;;;;4977736;28;20183;-92
2022/01/10 08:10:44;;;;;;;31.33;10.97;;;3.70;99.90;;;;;;4977359;28;20190;-92
2022/01/10 08:13:10;;;;;;;24.10;10.47;;;3.70;99.90;;;;;;4977702;28;20191;-92
2022/01/10 08:15:36;;;;;;;24.93;10.27;;;3.70;99.90;;;;;;4977190;28;20188;-92
2022/01/10 08:18:03;;;;;;;28.77;11.90;;;3.70;99.90;;;;;;4976699;28;20184;-92
2022/01/10 08:20:29;;;;;;;24.27;11.53;;;3.80;99.90;;;;;;4976932;28;20196;-94
2022/01/10 08:22:55;;;;;;;26.40;12.40;;;3.80;99.90;;;;;;4976849;28;20545;-93
2022/01/10 08:25:20;;;;;;;28.17;10.93;;;3.80;99.90;;;;;;4977097;28;20189;-92
2022/01/10 08:27:46;;;;;;;35.07;11.60;;;3.90;99.90;;;;;;4977388;28;20216;-92
2022/01/10 08:30:12;;;;;;;29.97;12.20;;;4.00;99.90;;;;;;4975973;28;20240;-92
2022/01/10 08:32:38;;;;;;;39.37;11.37;;;3.90;99.90;;;;;;4976521;28;20188;-93
2022/01/10 08:35:04;;;;;;;29.97;11.73;;;4.00;99.90;;;;;;4975964;28;20180;-92
2022/01/10 08:37:30;;;;;;;26.40;11.23;;;4.00;99.90;;;;;;4977132;28;20267;-94
2022/01/10 08:39:56;;;;;;;27.33;10.40;;;4.00;99.90;;;;;;4977620;28;20180;-90
2022/01/10 08:42:23;;;;;;;26.40;10.53;;;4.10;99.90;;;;;;4976781;28;20235;-92
2022/01/10 08:44:49;;;;;;;27.50;10.63;;;4.00;99.90;;;;;;4976100;28;20271;-93
2022/01/10 08:47:16;;;;;;;28.93;10.93;;;4.00;99.90;;;;;;4976831;28;20215;-93
2022/01/10 08:49:42;;;;;;;21.57;9.93;;;4.00;99.90;;;;;;4976204;28;20188;-93
2022/01/10 08:52:08;;;;;;;28.90;10.70;;;4.00;99.90;;;;;;4975833;28;20199;-92
2022/01/10 08:54:34;;;;;;;26.57;10.90;;;4.10;99.90;;;;;;4975315;28;20600;-89
2022/01/10 08:57:00;;;;;;;30.10;10.67;;;4.00;99.90;;;;;;4975422;28;20212;-89
2022/01/10 08:59:28;;;;;;;27.23;10.70;;;4.00;99.90;;;;;;4975826;28;20175;-90
2022/01/10 09:01:54;;;;;;;29.37;9.77;;;4.00;99.90;;;;;;4971102;28;20496;-91
2022/01/10 09:04:20;;;;;;;26.77;10.80;;;4.00;99.90;;;;;;4973545;28;20188;-91
2022/01/10 09:06:48;;;;;;;24.87;10.77;;;4.00;99.90;;;;;;4975599;28;20243;-91
2022/01/10 09:09:15;;;;;;;26.20;9.63;;;4.00;99.90;;;;;;4976004;28;20173;-91
2022/01/10 09:11:42;;;;;;;28.00;10.53;;;4.00;99.90;;;;;;4976163;28;20192;-91
2022/01/10 09:14:10;;;;;;;35.67;10.50;;;4.00;99.90;;;;;;4977020;28;20276;-93
2022/01/10 09:16:36;;;;;;;28.27;10.07;;;4.00;99.90;;;;;;4975822;28;20304;-92
2022/01/10 09:19:02;;;;;;;30.37;10.10;;;4.00;99.90;;;;;;4976017;28;20515;-91
2022/01/10 09:21:28;;;;;;;35.57;12.03;;;3.90;99.90;;;;;;4977066;28;20263;-92
2022/01/10 09:23:54;;;;;;;27.17;10.13;;;4.00;99.90;;;;;;4976353;28;20564;-91
2022/01/10 09:26:20;;;;;;;32.90;10.87;;;4.00;99.90;;;;;;4976110;28;20208;-92
2022/01/10 09:28:46;;;;;;;23.77;11.17;;;4.00;99.90;;;;;;4976048;28;20176;-91
2022/01/10 09:31:12;;;;;;;30.23;11.73;;;4.00;99.90;;;;;;4975678;28;20505;-91
2022/01/10 09:33:39;;;;;;;25.10;11.03;;;4.00;99.90;;;;;;4975300;28;20204;-91
2022/01/10 09:36:05;;;;;;;28.60;11.50;;;4.10;99.90;;;;;;4974933;28;20204;-91
2022/01/10 09:38:31;;;;;;;33.17;10.63;;;4.10;99.90;;;;;;4975128;28;20230;-90
2022/01/10 09:40:57;;;;;;;26.20;10.63;;;4.00;99.90;;;;;;4975358;28;20282;-91
2022/01/10 09:43:23;;;;;;;23.93;10.73;;;4.10;99.90;;;;;;4976736;28;20231;-91
2022/01/10 09:45:51;;;;;;;24.30;11.07;;;4.10;99.90;;;;;;4975393;28;20204;-92
2022/01/10 09:48:17;;;;;;;30.73;11.13;;;4.10;99.90;;;;;;4971305;28;20177;-92
2022/01/10 09:50:43;;;;;;;32.20;10.33;;;4.20;99.90;;;;;;4972439;28;20182;-92
2022/01/10 09:53:10;;;;;;;25.23;11.20;;;4.20;99.90;;;;;;4972358;28;20177;-92
2022/01/10 09:55:36;;;;;;;26.33;11.23;;;4.20;99.90;;;;;;4972580;28;20205;-92
2022/01/10 09:58:03;;;;;;;27.03;12.03;;;4.10;99.90;;;;;;4972280;28;20208;-91
2022/01/10 10:00:30;;;;;;;26.83;10.73;;;4.20;99.90;;;;;;4973441;28;20180;-90
2022/01/10 10:02:56;;;;;;;22.43;10.80;;;4.20;99.90;;;;;;4974758;28;20195;-90
2022/01/10 10:05:22;;;;;;;41.53;12.77;;;4.20;99.90;;;;;;4975167;28;20185;-92
2022/01/10 10:07:48;;;;;;;32.20;11.67;;;4.20;99.90;;;;;;4975009;28;20630;-91
2022/01/10 10:10:15;;;;;;;28.17;12.13;;;4.20;99.90;;;;;;4975273;28;20235;-91
2022/01/10 10:12:47;;;;;;;34.27;12.73;;;4.30;99.90;;;;;;4974316;28;20257;-92
2022/01/10 10:15:17;;;;;;;27.63;12.10;;;4.30;99.90;;;;;;4974609;28;20215;-90
2022/01/10 10:17:44;;;;;;;26.03;11.83;;;4.30;99.90;;;;;;4974457;28;20665;-91
2022/01/10 10:20:12;;;;;;;28.33;12.37;;;4.30;99.90;;;;;;4974860;28;20176;-91
2022/01/10 10:22:44;;;;;;;30.20;14.00;;;4.30;99.90;;;;;;4976018;28;20620;-91
2022/01/10 10:25:10;;;;;;;32.03;13.93;;;4.30;99.90;;;;;;4974833;28;20181;-91
2022/01/10 10:27:38;;;;;;;25.60;12.83;;;4.30;99.90;;;;;;4975482;28;20172;-90
2022/01/10 10:30:08;;;;;;;31.67;13.30;;;4.40;99.90;;;;;;4974237;28;20192;-92
2022/01/10 10:32:34;;;;;;;30.80;12.77;;;4.40;99.90;;;;;;4992839;28;20522;-91
2022/01/10 10:35:00;;;;;;;32.63;13.20;;;4.40;99.90;;;;;;4976123;28;20185;-91
2022/01/10 10:37:27;;;;;;;30.43;13.47;;;4.50;99.90;;;;;;4975931;28;20208;-91
2022/01/10 10:39:55;;;;;;;40.10;13.97;;;4.40;99.90;;;;;;4974997;28;20319;-91
2022/01/10 10:42:24;;;;;;;29.77;13.93;;;4.50;99.90;;;;;;4978366;28;20184;-91
2022/01/10 10:44:50;;;;;;;26.10;13.33;;;4.50;99.90;;;;;;4978483;28;20212;-91
2022/01/10 10:47:17;;;;;;;26.27;12.77;;;4.50;99.90;;;;;;4979948;28;20177;-91
2022/01/10 10:49:47;;;;;;;22.97;10.43;;;4.50;99.90;;;;;;4978619;28;20670;-92
2022/01/10 10:52:13;;;;;;;28.33;11.77;;;4.60;99.90;;;;;;4979641;28;20249;-91
2022/01/10 10:54:40;;;;;;;28.20;10.67;;;4.60;99.90;;;;;;4978470;28;20180;-91
2022/01/10 10:57:08;;;;;;;30.90;11.10;;;4.60;99.90;;;;;;4978145;28;20216;-91
2022/01/10 10:59:37;;;;;;;26.33;10.53;;;4.50;99.90;;;;;;4978126;28;20279;-91
2022/01/10 11:02:03;;;;;;;20.17;9.03;;;4.50;99.90;;;;;;4979625;28;20176;-91
2022/01/10 11:04:31;;;;;;;21.73;9.23;;;4.60;99.90;;;;;;4978186;28;20176;-90
2022/01/10 11:06:58;;;;;;;24.70;10.03;;;4.60;99.90;;;;;;4978193;28;20219;-91
2022/01/10 11:09:25;;;;;;;25.13;10.53;;;4.60;99.90;;;;;;4979170;28;20179;-91
2022/01/10 11:11:52;;;;;;;29.43;11.17;;;4.50;99.90;;;;;;4979327;28;20256;-91
2022/01/10 11:14:22;;;;;;;21.03;11.77;;;4.50;99.90;;;;;;4979456;28;20220;-92
2022/01/10 11:16:50;;;;;;;24.77;12.03;;;4.50;99.90;;;;;;4978349;28;20227;-92
2022/01/10 11:19:26;;;;;;;25.20;12.77;;;4.50;99.90;;;;;;4977839;28;20184;-91
2022/01/10 11:22:03;;;;;;;26.67;11.13;;;4.50;99.90;;;;;;4978223;28;20183;-91
2022/01/10 11:24:48;;;;;;;25.93;10.70;;;4.60;99.90;;;;;;4978106;28;20172;-88
2022/01/10 11:27:35;;;;;;;25.43;11.20;;;4.60;99.90;;;;;;4978109;28;20615;-91
2022/01/10 11:30:24;;;;;;;21.83;11.07;;;4.50;99.90;;;;;;4978076;28;20165;-91
2022/01/10 11:33:04;;;;;;;25.27;11.47;;;4.60;99.90;;;;;;4977601;28;20232;-92
2022/01/10 11:36:04;;;;;;;21.23;10.00;;;4.60;99.90;;;;;;4978848;28;20167;-92
2022/01/10 11:38:51;;;;;;;25.50;10.57;;;4.60;99.90;;;;;;4953817;28;20319;-91
2022/01/10 11:41:29;;;;;;;23.83;11.47;;;4.70;99.90;;;;;;4978060;28;20176;-92
2022/01/10 11:44:07;;;;;;;27.50;12.23;;;4.70;99.90;;;;;;4977639;28;20192;-91
2022/01/10 11:46:45;;;;;;;31.73;12.30;;;4.80;99.90;;;;;;4977491;28;20172;-91
2022/01/10 11:49:13;;;;;;;24.43;11.90;;;4.80;99.90;;;;;;4977089;28;20172;-91
2022/01/10 11:51:50;;;;;;;29.47;12.40;;;4.80;99.90;;;;;;4976473;28;20177;-92
2022/01/10 11:54:26;;;;;;;24.57;10.90;;;4.90;99.90;;;;;;4970401;28;20642;-90
2022/01/10 11:56:53;;;;;;;22.23;11.77;;;4.90;99.90;;;;;;4976553;28;20230;-89
2022/01/10 11:59:39;;;;;;;32.03;12.50;;;4.90;99.90;;;;;;4976957;28;20191;-90
2022/01/10 12:02:14;;;;;;;24.67;11.50;;;4.90;99.90;;;;;;4977869;28;20271;-90
2022/01/10 12:05:00;;;;;;;27.77;12.57;;;4.90;99.90;;;;;;4976682;28;20180;-90
2022/01/10 12:07:27;;;;;;;38.03;13.23;;;4.90;99.90;;;;;;4977111;28;20172;-90
2022/01/10 12:09:54;;;;;;;32.80;12.77;;;4.80;99.90;;;;;;4977885;28;20231;-91
2022/01/10 12:12:22;;;;;;;25.50;12.93;;;4.90;99.90;;;;;;4977081;28;20203;-90
2022/01/10 12:14:49;;;;;;;30.87;12.00;;;4.90;99.90;;;;;;4976877;28;20215;-91
2022/01/10 12:17:15;;;;;;;26.70;11.97;;;4.90;99.90;;;;;;4977141;28;20286;-89
2022/01/10 12:19:41;;;;;;;31.07;12.07;;;4.90;99.90;;;;;;4977406;28;20184;-91
2022/01/10 12:22:09;;;;;;;26.43;11.10;;;4.90;99.90;;;;;;4977285;28;20188;-91
2022/01/10 12:24:35;;;;;;;36.20;11.13;;;4.80;99.90;;;;;;4977104;28;20177;-91
2022/01/10 12:27:03;;;;;;;22.03;10.23;;;4.80;99.90;;;;;;4977917;28;20180;-92
2022/01/10 12:29:30;;;;;;;23.10;9.83;;;4.80;99.90;;;;;;4977013;28;20219;-91
2022/01/10 12:31:57;;;;;;;29.53;10.00;;;4.80;99.90;;;;;;4976910;28;20184;-91
2022/01/10 12:34:22;;;;;;;31.47;10.57;;;4.80;99.90;;;;;;4976603;28;20180;-90
2022/01/10 12:36:48;;;;;;;23.67;9.40;;;4.80;99.90;;;;;;4977238;28;20304;-91
2022/01/10 12:39:27;;;;;;;23.67;9.43;;;4.80;99.90;;;;;;4977470;28;20730;-92
2022/01/10 12:41:58;;;;;;;31.50;11.47;;;4.80;99.90;;;;;;4977153;28;20184;-91
2022/01/10 12:44:24;;;;;;;26.63;9.83;;;4.80;99.90;;;;;;4977868;28;20227;-92
2022/01/10 12:46:51;;;;;;;27.23;11.23;;;4.80;99.90;;;;;;4978333;28;20187;-91
2022/01/10 12:49:17;;;;;;;30.83;11.03;;;4.70;99.90;;;;;;4981221;28;20323;-91
2022/01/10 12:51:51;;;;;;;30.80;11.13;;;4.80;99.90;;;;;;4979720;28;20216;-92
2022/01/10 12:54:20;;;;;;;32.57;11.17;;;4.80;99.90;;;;;;4978926;28;20191;-92